sensor_id;sensor_type;location;lat;lon;timestamp;temperature;humidity
41324;DHT22;27073;51.128;4.220;2023-03-14T00:01:30;11.40;99.90
41324;DHT22;27073;51.128;4.220;2023-03-14T00:03:55;11.40;99.90
41324;DHT22;27073;51.128;4.220;2023-03-14T00:06:21;11.30;99.90
41324;DHT22;27073;51.128;4.220;2023-03-14T00:08:47;11.40;99.90
41324;DHT22;27073;51.128;4.220;2023-03-14T00:11:16;11.30;99.90
41324;DHT22;27073;51.128;4.220;2023-03-14T00:13:42;11.30;99.90
41324;DHT22;27073;51.128;4.220;2023-03-14T00:16:10;11.30;99.90
41324;DHT22;27073;51.128;4.220;2023-03-14T00:18:37;11.20;99.90
41324;DHT22;27073;51.128;4.220;2023-03-14T00:21:04;11.20;99.90
41324;DHT22;27073;51.128;4.220;2023-03-14T00:23:32;11.10;99.90
41324;DHT22;27073;51.128;4.220;2023-03-14T00:26:03;11.10;99.90
41324;DHT22;27073;51.128;4.220;2023-03-14T00:28:29;11.10;99.90
41324;DHT22;27073;51.128;4.220;2023-03-14T00:30:55;11.10;99.90
41324;DHT22;27073;51.128;4.220;2023-03-14T00:33:21;11.10;99.90
41324;DHT22;27073;51.128;4.220;2023-03-14T00:35:58;11.10;99.90
41324;DHT22;27073;51.128;4.220;2023-03-14T00:38:24;11.20;99.90
41324;DHT22;27073;51.128;4.220;2023-03-14T00:40:51;11.20;99.90
41324;DHT22;27073;51.128;4.220;2023-03-14T00:43:18;11.20;99.90
41324;DHT22;27073;51.128;4.220;2023-03-14T00:45:44;11.20;99.90
41324;DHT22;27073;51.128;4.220;2023-03-14T00:48:09;11.30;99.90
41324;DHT22;27073;51.128;4.220;2023-03-14T00:50:35;11.30;99.90
41324;DHT22;27073;51.128;4.220;2023-03-14T00:53:01;11.20;99.90
41324;DHT22;27073;51.128;4.220;2023-03-14T00:55:27;11.10;99.90
41324;DHT22;27073;51.128;4.220;2023-03-14T00:57:53;11.10;99.90
41324;DHT22;27073;51.128;4.220;2023-03-14T01:00:19;11.10;99.90
41324;DHT22;27073;51.128;4.220;2023-03-14T01:02:44;11.10;99.90
41324;DHT22;27073;51.128;4.220;2023-03-14T01:05:10;11.10;99.90
41324;DHT22;27073;51.128;4.220;2023-03-14T01:07:37;11.10;99.90
41324;DHT22;27073;51.128;4.220;2023-03-14T01:10:06;11.00;99.90
41324;DHT22;27073;51.128;4.220;2023-03-14T01:12:32;10.90;99.90
41324;DHT22;27073;51.128;4.220;2023-03-14T01:14:57;10.90;99.90
41324;DHT22;27073;51.128;4.220;2023-03-14T01:17:23;11.00;99.90
41324;DHT22;27073;51.128;4.220;2023-03-14T01:19:49;11.00;99.90
41324;DHT22;27073;51.128;4.220;2023-03-14T01:22:15;10.90;99.90
41324;DHT22;27073;51.128;4.220;2023-03-14T01:24:41;10.90;99.90
41324;DHT22;27073;51.128;4.220;2023-03-14T01:27:07;10.90;99.90
41324;DHT22;27073;51.128;4.220;2023-03-14T01:29:32;10.90;99.90
41324;DHT22;27073;51.128;4.220;2023-03-14T01:31:58;11.00;99.90
41324;DHT22;27073;51.128;4.220;2023-03-14T01:34:24;10.90;99.90
41324;DHT22;27073;51.128;4.220;2023-03-14T01:36:50;10.80;99.90
41324;DHT22;27073;51.128;4.220;2023-03-14T01:39:17;10.80;99.90
41324;DHT22;27073;51.128;4.220;2023-03-14T01:41:42;10.90;99.90
41324;DHT22;27073;51.128;4.220;2023-03-14T01:44:12;11.00;99.90
41324;DHT22;27073;51.128;4.220;2023-03-14T01:46:42;11.00;99.90
41324;DHT22;27073;51.128;4.220;2023-03-14T01:49:22;11.00;99.90
41324;DHT22;27073;51.128;4.220;2023-03-14T01:52:07;11.00;99.90
41324;DHT22;27073;51.128;4.220;2023-03-14T01:54:41;11.00;99.90
41324;DHT22;27073;51.128;4.220;2023-03-14T02:00:14;10.80;99.90
41324;DHT22;27073;51.128;4.220;2023-03-14T02:02:46;10.80;99.90
41324;DHT22;27073;51.128;4.220;2023-03-14T02:05:28;10.70;99.90
41324;DHT22;27073;51.128;4.220;2023-03-14T02:08:02;10.80;99.90
41324;DHT22;27073;51.128;4.220;2023-03-14T02:10:47;10.90;99.90
41324;DHT22;27073;51.128;4.220;2023-03-14T02:13:16;10.80;99.90
41324;DHT22;27073;51.128;4.220;2023-03-14T02:15:54;10.80;99.90
41324;DHT22;27073;51.128;4.220;2023-03-14T02:18:41;10.80;99.90
41324;DHT22;27073;51.128;4.220;2023-03-14T02:26:31;10.90;99.90
41324;DHT22;27073;51.128;4.220;2023-03-14T02:28:58;10.90;99.90
41324;DHT22;27073;51.128;4.220;2023-03-14T02:31:24;10.90;99.90
41324;DHT22;27073;51.128;4.220;2023-03-14T02:33:51;10.90;99.90
41324;DHT22;27073;51.128;4.220;2023-03-14T02:36:18;11.10;99.90
41324;DHT22;27073;51.128;4.220;2023-03-14T02:38:52;11.10;99.90
41324;DHT22;27073;51.128;4.220;2023-03-14T02:41:19;11.00;99.90
41324;DHT22;27073;51.128;4.220;2023-03-14T02:43:52;10.90;99.90
41324;DHT22;27073;51.128;4.220;2023-03-14T02:46:20;10.90;99.90
41324;DHT22;27073;51.128;4.220;2023-03-14T02:49:00;10.90;99.90
41324;DHT22;27073;51.128;4.220;2023-03-14T02:51:27;10.80;99.90
41324;DHT22;27073;51.128;4.220;2023-03-14T02:53:54;10.80;99.90
41324;DHT22;27073;51.128;4.220;2023-03-14T02:56:21;10.70;99.90
41324;DHT22;27073;51.128;4.220;2023-03-14T02:58:47;10.70;99.90
41324;DHT22;27073;51.128;4.220;2023-03-14T03:01:24;10.80;99.90
41324;DHT22;27073;51.128;4.220;2023-03-14T03:03:50;10.80;99.90
41324;DHT22;27073;51.128;4.220;2023-03-14T03:06:18;10.80;99.90
41324;DHT22;27073;51.128;4.220;2023-03-14T03:08:44;10.90;99.90
41324;DHT22;27073;51.128;4.220;2023-03-14T03:11:10;10.80;99.90
41324;DHT22;27073;51.128;4.220;2023-03-14T03:13:36;10.90;99.90
41324;DHT22;27073;51.128;4.220;2023-03-14T03:16:04;10.60;99.90
41324;DHT22;27073;51.128;4.220;2023-03-14T03:18:30;10.50;99.90
41324;DHT22;27073;51.128;4.220;2023-03-14T03:21:02;10.50;99.90
41324;DHT22;27073;51.128;4.220;2023-03-14T03:23:29;10.60;99.90
41324;DHT22;27073;51.128;4.220;2023-03-14T03:25:55;10.60;99.90
41324;DHT22;27073;51.128;4.220;2023-03-14T03:28:20;10.60;99.90
41324;DHT22;27073;51.128;4.220;2023-03-14T03:30:46;10.70;99.90
41324;DHT22;27073;51.128;4.220;2023-03-14T03:33:13;10.60;99.90
41324;DHT22;27073;51.128;4.220;2023-03-14T03:35:47;10.50;99.90
41324;DHT22;27073;51.128;4.220;2023-03-14T03:38:15;10.30;99.90
41324;DHT22;27073;51.128;4.220;2023-03-14T03:40:42;10.30;99.90
41324;DHT22;27073;51.128;4.220;2023-03-14T03:43:10;10.50;99.90
41324;DHT22;27073;51.128;4.220;2023-03-14T03:45:38;10.50;99.90
41324;DHT22;27073;51.128;4.220;2023-03-14T03:48:05;10.40;99.90
41324;DHT22;27073;51.128;4.220;2023-03-14T03:50:31;10.40;99.90
41324;DHT22;27073;51.128;4.220;2023-03-14T03:52:57;10.40;99.90
41324;DHT22;27073;51.128;4.220;2023-03-14T03:55:23;10.30;99.90
41324;DHT22;27073;51.128;4.220;2023-03-14T03:57:48;10.30;99.90
41324;DHT22;27073;51.128;4.220;2023-03-14T04:00:14;10.30;99.90
41324;DHT22;27073;51.128;4.220;2023-03-14T04:02:40;10.40;99.90
41324;DHT22;27073;51.128;4.220;2023-03-14T04:05:07;10.50;99.90
41324;DHT22;27073;51.128;4.220;2023-03-14T04:07:34;10.60;99.90
41324;DHT22;27073;51.128;4.220;2023-03-14T04:10:00;10.50;99.90
41324;DHT22;27073;51.128;4.220;2023-03-14T04:12:36;10.60;99.90
41324;DHT22;27073;51.128;4.220;2023-03-14T04:15:07;10.60;99.90
41324;DHT22;27073;51.128;4.220;2023-03-14T04:17:34;10.50;99.90
41324;DHT22;27073;51.128;4.220;2023-03-14T04:19:59;10.50;99.90
41324;DHT22;27073;51.128;4.220;2023-03-14T04:22:33;10.50;99.90
41324;DHT22;27073;51.128;4.220;2023-03-14T04:24:59;10.50;99.90
41324;DHT22;27073;51.128;4.220;2023-03-14T04:27:28;10.60;99.90
41324;DHT22;27073;51.128;4.220;2023-03-14T04:29:55;10.50;99.90
41324;DHT22;27073;51.128;4.220;2023-03-14T04:32:39;10.40;99.90
41324;DHT22;27073;51.128;4.220;2023-03-14T04:35:05;10.30;99.90
41324;DHT22;27073;51.128;4.220;2023-03-14T04:37:31;10.20;99.90
41324;DHT22;27073;51.128;4.220;2023-03-14T04:39:56;10.20;99.90
41324;DHT22;27073;51.128;4.220;2023-03-14T04:42:25;10.20;99.90
41324;DHT22;27073;51.128;4.220;2023-03-14T04:44:51;10.30;99.90
41324;DHT22;27073;51.128;4.220;2023-03-14T04:47:20;10.30;99.90
41324;DHT22;27073;51.128;4.220;2023-03-14T04:49:48;10.40;99.90
41324;DHT22;27073;51.128;4.220;2023-03-14T04:52:14;10.20;99.90
41324;DHT22;27073;51.128;4.220;2023-03-14T04:54:41;10.20;99.90
41324;DHT22;27073;51.128;4.220;2023-03-14T04:57:07;10.20;99.90
41324;DHT22;27073;51.128;4.220;2023-03-14T04:59:35;10.10;99.90
41324;DHT22;27073;51.128;4.220;2023-03-14T05:02:13;10.10;99.90
41324;DHT22;27073;51.128;4.220;2023-03-14T05:04:55;10.20;99.90
41324;DHT22;27073;51.128;4.220;2023-03-14T05:07:45;10.20;99.90
41324;DHT22;27073;51.128;4.220;2023-03-14T05:10:33;10.30;99.90
41324;DHT22;27073;51.128;4.220;2023-03-14T05:13:22;10.30;99.90
41324;DHT22;27073;51.128;4.220;2023-03-14T05:16:11;10.30;99.90
41324;DHT22;27073;51.128;4.220;2023-03-14T05:18:46;10.30;99.90
41324;DHT22;27073;51.128;4.220;2023-03-14T05:21:32;10.40;99.90
41324;DHT22;27073;51.128;4.220;2023-03-14T05:24:16;10.40;99.90
41324;DHT22;27073;51.128;4.220;2023-03-14T05:26:59;10.40;99.90
41324;DHT22;27073;51.128;4.220;2023-03-14T05:29:37;10.50;99.90
41324;DHT22;27073;51.128;4.220;2023-03-14T05:32:22;10.50;99.90
41324;DHT22;27073;51.128;4.220;2023-03-14T05:34:51;10.60;99.90
41324;DHT22;27073;51.128;4.220;2023-03-14T05:37:30;10.60;99.90
41324;DHT22;27073;51.128;4.220;2023-03-14T05:40:28;10.70;99.90
41324;DHT22;27073;51.128;4.220;2023-03-14T05:43:17;10.70;99.90
41324;DHT22;27073;51.128;4.220;2023-03-14T05:45:56;10.60;99.90
41324;DHT22;27073;51.128;4.220;2023-03-14T05:48:48;10.60;99.90
41324;DHT22;27073;51.128;4.220;2023-03-14T05:51:33;10.40;99.90
41324;DHT22;27073;51.128;4.220;2023-03-14T05:54:16;10.50;99.90
41324;DHT22;27073;51.128;4.220;2023-03-14T05:57:00;10.40;99.90
41324;DHT22;27073;51.128;4.220;2023-03-14T05:59:49;10.30;99.90
41324;DHT22;27073;51.128;4.220;2023-03-14T06:02:33;10.30;99.90
41324;DHT22;27073;51.128;4.220;2023-03-14T06:05:07;10.30;99.90
41324;DHT22;27073;51.128;4.220;2023-03-14T06:07:34;10.40;99.90
41324;DHT22;27073;51.128;4.220;2023-03-14T06:10:00;10.30;99.90
41324;DHT22;27073;51.128;4.220;2023-03-14T06:12:26;10.30;99.90
41324;DHT22;27073;51.128;4.220;2023-03-14T06:14:52;10.30;99.90
41324;DHT22;27073;51.128;4.220;2023-03-14T06:17:18;10.30;99.90
41324;DHT22;27073;51.128;4.220;2023-03-14T06:19:50;10.30;99.90
41324;DHT22;27073;51.128;4.220;2023-03-14T06:22:16;10.20;99.90
41324;DHT22;27073;51.128;4.220;2023-03-14T06:24:42;9.90;99.90
41324;DHT22;27073;51.128;4.220;2023-03-14T06:27:09;9.50;99.90
41324;DHT22;27073;51.128;4.220;2023-03-14T06:29:34;9.20;99.90
41324;DHT22;27073;51.128;4.220;2023-03-14T06:32:01;8.90;99.90
41324;DHT22;27073;51.128;4.220;2023-03-14T06:34:27;8.50;99.90
41324;DHT22;27073;51.128;4.220;2023-03-14T06:36:53;8.30;99.90
41324;DHT22;27073;51.128;4.220;2023-03-14T06:39:19;8.10;99.90
41324;DHT22;27073;51.128;4.220;2023-03-14T06:41:49;8.10;99.90
41324;DHT22;27073;51.128;4.220;2023-03-14T06:44:16;8.00;99.90
41324;DHT22;27073;51.128;4.220;2023-03-14T06:46:43;7.80;99.90
41324;DHT22;27073;51.128;4.220;2023-03-14T06:49:09;7.80;99.90
41324;DHT22;27073;51.128;4.220;2023-03-14T06:51:35;7.80;99.90
41324;DHT22;27073;51.128;4.220;2023-03-14T06:54:03;7.80;99.90
41324;DHT22;27073;51.128;4.220;2023-03-14T06:56:29;7.70;99.90
41324;DHT22;27073;51.128;4.220;2023-03-14T06:58:56;7.60;99.90
41324;DHT22;27073;51.128;4.220;2023-03-14T07:01:26;7.50;99.90
41324;DHT22;27073;51.128;4.220;2023-03-14T07:03:56;7.50;99.90
41324;DHT22;27073;51.128;4.220;2023-03-14T07:06:22;7.50;99.90
41324;DHT22;27073;51.128;4.220;2023-03-14T07:08:48;7.60;99.90
41324;DHT22;27073;51.128;4.220;2023-03-14T07:11:16;7.50;99.90
41324;DHT22;27073;51.128;4.220;2023-03-14T07:13:41;7.40;99.90
41324;DHT22;27073;51.128;4.220;2023-03-14T07:16:10;7.40;99.90
41324;DHT22;27073;51.128;4.220;2023-03-14T07:18:37;7.40;99.90
41324;DHT22;27073;51.128;4.220;2023-03-14T07:21:06;7.40;99.90
41324;DHT22;27073;51.128;4.220;2023-03-14T07:23:32;7.50;99.90
41324;DHT22;27073;51.128;4.220;2023-03-14T07:25:58;7.50;99.90
41324;DHT22;27073;51.128;4.220;2023-03-14T07:28:26;7.50;99.90
41324;DHT22;27073;51.128;4.220;2023-03-14T07:30:58;7.50;99.90
41324;DHT22;27073;51.128;4.220;2023-03-14T07:33:29;7.50;99.90
41324;DHT22;27073;51.128;4.220;2023-03-14T07:35:56;7.60;99.90
41324;DHT22;27073;51.128;4.220;2023-03-14T07:38:22;7.60;99.90
41324;DHT22;27073;51.128;4.220;2023-03-14T07:41:12;7.70;99.90
41324;DHT22;27073;51.128;4.220;2023-03-14T07:43:49;7.60;99.90
41324;DHT22;27073;51.128;4.220;2023-03-14T07:46:15;7.50;99.90
41324;DHT22;27073;51.128;4.220;2023-03-14T07:48:41;7.50;99.90
41324;DHT22;27073;51.128;4.220;2023-03-14T07:51:07;7.60;99.90
41324;DHT22;27073;51.128;4.220;2023-03-14T07:53:33;7.60;99.90
41324;DHT22;27073;51.128;4.220;2023-03-14T07:55:58;7.60;99.90
41324;DHT22;27073;51.128;4.220;2023-03-14T07:58:24;7.60;99.90
41324;DHT22;27073;51.128;4.220;2023-03-14T08:00:51;7.50;99.90
41324;DHT22;27073;51.128;4.220;2023-03-14T08:03:17;7.40;99.90
41324;DHT22;27073;51.128;4.220;2023-03-14T08:05:43;7.50;99.90
41324;DHT22;27073;51.128;4.220;2023-03-14T08:08:09;7.60;99.90
41324;DHT22;27073;51.128;4.220;2023-03-14T08:10:35;7.50;99.90
41324;DHT22;27073;51.128;4.220;2023-03-14T08:13:01;7.50;99.90
41324;DHT22;27073;51.128;4.220;2023-03-14T08:15:29;7.60;99.90
41324;DHT22;27073;51.128;4.220;2023-03-14T08:17:55;7.70;99.90
41324;DHT22;27073;51.128;4.220;2023-03-14T08:20:23;7.60;99.90
41324;DHT22;27073;51.128;4.220;2023-03-14T08:22:50;7.70;99.90
41324;DHT22;27073;51.128;4.220;2023-03-14T08:25:16;7.70;99.90
41324;DHT22;27073;51.128;4.220;2023-03-14T08:27:42;7.70;99.90
41324;DHT22;27073;51.128;4.220;2023-03-14T08:30:10;7.70;99.90
41324;DHT22;27073;51.128;4.220;2023-03-14T08:32:36;7.60;99.90
41324;DHT22;27073;51.128;4.220;2023-03-14T08:35:03;7.60;99.90
41324;DHT22;27073;51.128;4.220;2023-03-14T08:37:31;7.60;99.90
41324;DHT22;27073;51.128;4.220;2023-03-14T08:39:57;7.50;99.90
41324;DHT22;27073;51.128;4.220;2023-03-14T08:42:23;7.50;99.90
41324;DHT22;27073;51.128;4.220;2023-03-14T08:44:50;7.60;99.90
41324;DHT22;27073;51.128;4.220;2023-03-14T08:47:16;7.60;99.90
41324;DHT22;27073;51.128;4.220;2023-03-14T08:49:41;7.60;99.90
41324;DHT22;27073;51.128;4.220;2023-03-14T08:52:07;7.70;99.90
41324;DHT22;27073;51.128;4.220;2023-03-14T08:54:33;7.70;99.90
41324;DHT22;27073;51.128;4.220;2023-03-14T08:56:59;7.60;99.90
41324;DHT22;27073;51.128;4.220;2023-03-14T08:59:24;7.60;99.90
41324;DHT22;27073;51.128;4.220;2023-03-14T09:01:50;7.60;99.90
41324;DHT22;27073;51.128;4.220;2023-03-14T09:04:16;7.50;99.90
41324;DHT22;27073;51.128;4.220;2023-03-14T09:06:42;7.60;99.90
41324;DHT22;27073;51.128;4.220;2023-03-14T09:09:08;7.70;99.90
41324;DHT22;27073;51.128;4.220;2023-03-14T09:11:33;7.60;99.90
41324;DHT22;27073;51.128;4.220;2023-03-14T09:13:59;7.60;99.90
41324;DHT22;27073;51.128;4.220;2023-03-14T09:16:25;7.60;99.90
41324;DHT22;27073;51.128;4.220;2023-03-14T09:18:51;7.70;99.90
41324;DHT22;27073;51.128;4.220;2023-03-14T09:21:21;7.80;99.90
41324;DHT22;27073;51.128;4.220;2023-03-14T09:23:46;7.70;99.90
41324;DHT22;27073;51.128;4.220;2023-03-14T09:26:12;7.80;99.90
41324;DHT22;27073;51.128;4.220;2023-03-14T09:28:38;7.60;99.90
41324;DHT22;27073;51.128;4.220;2023-03-14T09:31:11;7.60;99.90
41324;DHT22;27073;51.128;4.220;2023-03-14T09:33:37;7.60;99.90
41324;DHT22;27073;51.128;4.220;2023-03-14T09:36:04;7.50;99.90
41324;DHT22;27073;51.128;4.220;2023-03-14T09:38:30;7.50;99.90
41324;DHT22;27073;51.128;4.220;2023-03-14T09:40:57;7.30;99.90
41324;DHT22;27073;51.128;4.220;2023-03-14T09:43:24;7.40;99.90
41324;DHT22;27073;51.128;4.220;2023-03-14T09:45:52;7.40;99.90
41324;DHT22;27073;51.128;4.220;2023-03-14T09:48:24;7.20;99.90
41324;DHT22;27073;51.128;4.220;2023-03-14T09:50:54;7.10;99.90
41324;DHT22;27073;51.128;4.220;2023-03-14T09:53:25;6.90;99.90
41324;DHT22;27073;51.128;4.220;2023-03-14T09:55:52;6.80;99.90
41324;DHT22;27073;51.128;4.220;2023-03-14T09:58:24;6.80;99.90
41324;DHT22;27073;51.128;4.220;2023-03-14T10:00:52;6.70;99.90
41324;DHT22;27073;51.128;4.220;2023-03-14T10:05:52;6.80;99.90
41324;DHT22;27073;51.128;4.220;2023-03-14T10:08:19;6.80;99.90
41324;DHT22;27073;51.128;4.220;2023-03-14T10:10:44;6.90;99.90
41324;DHT22;27073;51.128;4.220;2023-03-14T10:15:50;7.10;99.90
41324;DHT22;27073;51.128;4.220;2023-03-14T10:18:17;7.00;99.90
41324;DHT22;27073;51.128;4.220;2023-03-14T10:20:47;6.90;99.90
41324;DHT22;27073;51.128;4.220;2023-03-14T10:25:52;7.00;99.90
41324;DHT22;27073;51.128;4.220;2023-03-14T10:28:26;7.00;99.90
41324;DHT22;27073;51.128;4.220;2023-03-14T10:30:53;6.90;99.90
41324;DHT22;27073;51.128;4.220;2023-03-14T10:35:45;7.00;99.90
41324;DHT22;27073;51.128;4.220;2023-03-14T10:38:16;7.20;99.90
41324;DHT22;27073;51.128;4.220;2023-03-14T10:40:50;7.40;99.90
41324;DHT22;27073;51.128;4.220;2023-03-14T10:43:49;7.50;99.90
41324;DHT22;27073;51.128;4.220;2023-03-14T10:46:17;7.50;99.90
41324;DHT22;27073;51.128;4.220;2023-03-14T10:49:05;7.60;99.90
41324;DHT22;27073;51.128;4.220;2023-03-14T10:51:32;7.80;99.90
41324;DHT22;27073;51.128;4.220;2023-03-14T10:54:12;7.90;99.90
41324;DHT22;27073;51.128;4.220;2023-03-14T10:56:38;7.90;99.90
41324;DHT22;27073;51.128;4.220;2023-03-14T10:59:11;7.60;99.90
41324;DHT22;27073;51.128;4.220;2023-03-14T11:02:29;7.30;99.90
41324;DHT22;27073;51.128;4.220;2023-03-14T11:07:42;7.20;99.90
41324;DHT22;27073;51.128;4.220;2023-03-14T11:18:46;7.90;99.90
41324;DHT22;27073;51.128;4.220;2023-03-14T11:24:33;7.70;99.90
41324;DHT22;27073;51.128;4.220;2023-03-14T11:27:22;7.70;99.90
41324;DHT22;27073;51.128;4.220;2023-03-14T11:30:02;7.70;99.90
41324;DHT22;27073;51.128;4.220;2023-03-14T11:32:45;7.80;99.90
41324;DHT22;27073;51.128;4.220;2023-03-14T11:35:39;7.90;99.90
41324;DHT22;27073;51.128;4.220;2023-03-14T11:38:30;7.90;99.90
41324;DHT22;27073;51.128;4.220;2023-03-14T11:40:59;7.80;99.90
41324;DHT22;27073;51.128;4.220;2023-03-14T11:43:33;7.60;99.90
41324;DHT22;27073;51.128;4.220;2023-03-14T11:46:14;7.60;99.90
41324;DHT22;27073;51.128;4.220;2023-03-14T11:48:58;7.80;99.90
41324;DHT22;27073;51.128;4.220;2023-03-14T11:51:36;8.00;99.90
41324;DHT22;27073;51.128;4.220;2023-03-14T11:57:21;8.60;99.90
41324;DHT22;27073;51.128;4.220;2023-03-14T12:10:16;8.60;99.90
41324;DHT22;27073;51.128;4.220;2023-03-14T12:12:42;8.60;99.90
41324;DHT22;27073;51.128;4.220;2023-03-14T12:15:19;8.50;99.90
41324;DHT22;27073;51.128;4.220;2023-03-14T12:17:45;8.50;99.90
41324;DHT22;27073;51.128;4.220;2023-03-14T12:20:18;8.40;99.90
41324;DHT22;27073;51.128;4.220;2023-03-14T12:22:55;7.60;99.90
41324;DHT22;27073;51.128;4.220;2023-03-14T12:25:30;7.20;99.90
41324;DHT22;27073;51.128;4.220;2023-03-14T12:30:37;7.00;99.90
41324;DHT22;27073;51.128;4.220;2023-03-14T12:35:39;7.10;99.90
41324;DHT22;27073;51.128;4.220;2023-03-14T12:41:25;7.70;99.90
41324;DHT22;27073;51.128;4.220;2023-03-14T12:43:52;7.90;99.90
41324;DHT22;27073;51.128;4.220;2023-03-14T12:49:05;8.00;99.90
41324;DHT22;27073;51.128;4.220;2023-03-14T12:51:41;8.10;99.90
41324;DHT22;27073;51.128;4.220;2023-03-14T12:54:27;8.20;99.90
41324;DHT22;27073;51.128;4.220;2023-03-14T12:56:58;8.20;99.90
41324;DHT22;27073;51.128;4.220;2023-03-14T13:02:36;8.30;96.50
41324;DHT22;27073;51.128;4.220;2023-03-14T13:05:17;8.40;96.00
41324;DHT22;27073;51.128;4.220;2023-03-14T13:15:41;8.60;91.10
41324;DHT22;27073;51.128;4.220;2023-03-14T13:18:17;8.50;76.70
41324;DHT22;27073;51.128;4.220;2023-03-14T13:20:58;8.40;73.10
41324;DHT22;27073;51.128;4.220;2023-03-14T13:23:27;8.40;71.40
41324;DHT22;27073;51.128;4.220;2023-03-14T13:25:53;8.30;61.50
41324;DHT22;27073;51.128;4.220;2023-03-14T13:28:19;8.20;44.30
41324;DHT22;27073;51.128;4.220;2023-03-14T13:30:50;8.20;38.00
41324;DHT22;27073;51.128;4.220;2023-03-14T13:33:22;8.20;29.50
41324;DHT22;27073;51.128;4.220;2023-03-14T13:35:59;8.20;1.00
41324;DHT22;27073;51.128;4.220;2023-03-14T13:38:26;8.30;17.30
41324;DHT22;27073;51.128;4.220;2023-03-14T13:40:55;8.40;1.00
41324;DHT22;27073;51.128;4.220;2023-03-14T13:43:36;8.50;1.00
41324;DHT22;27073;51.128;4.220;2023-03-14T13:46:05;8.60;1.00
41324;DHT22;27073;51.128;4.220;2023-03-14T13:48:33;8.60;1.00
41324;DHT22;27073;51.128;4.220;2023-03-14T13:51:09;8.70;1.00
41324;DHT22;27073;51.128;4.220;2023-03-14T13:56:12;8.80;1.00
41324;DHT22;27073;51.128;4.220;2023-03-14T13:58:40;8.60;99.90
41324;DHT22;27073;51.128;4.220;2023-03-14T14:01:20;8.50;1.00
41324;DHT22;27073;51.128;4.220;2023-03-14T14:03:52;8.50;1.00
41324;DHT22;27073;51.128;4.220;2023-03-14T14:06:33;8.20;99.90
41324;DHT22;27073;51.128;4.220;2023-03-14T14:09:04;8.10;1.00
41324;DHT22;27073;51.128;4.220;2023-03-14T14:12:04;7.90;99.90
41324;DHT22;27073;51.128;4.220;2023-03-14T14:14:35;7.70;99.90
41324;DHT22;27073;51.128;4.220;2023-03-14T14:17:03;7.50;99.90
41324;DHT22;27073;51.128;4.220;2023-03-14T14:19:32;7.30;1.00
41324;DHT22;27073;51.128;4.220;2023-03-14T14:22:00;7.30;1.00
41324;DHT22;27073;51.128;4.220;2023-03-14T14:24:30;7.50;1.00
41324;DHT22;27073;51.128;4.220;2023-03-14T14:29:30;7.50;99.90
41324;DHT22;27073;51.128;4.220;2023-03-14T14:32:15;7.70;80.20
41324;DHT22;27073;51.128;4.220;2023-03-14T14:37:27;8.10;1.00
41324;DHT22;27073;51.128;4.220;2023-03-14T14:39:56;8.20;1.00
41324;DHT22;27073;51.128;4.220;2023-03-14T14:42:27;8.30;99.90
41324;DHT22;27073;51.128;4.220;2023-03-14T14:44:53;8.40;99.90
41324;DHT22;27073;51.128;4.220;2023-03-14T14:47:22;8.50;1.00
41324;DHT22;27073;51.128;4.220;2023-03-14T14:49:49;8.40;99.90
41324;DHT22;27073;51.128;4.220;2023-03-14T14:52:21;8.30;99.90
41324;DHT22;27073;51.128;4.220;2023-03-14T14:54:57;8.10;99.90
41324;DHT22;27073;51.128;4.220;2023-03-14T14:57:26;8.20;99.90
41324;DHT22;27073;51.128;4.220;2023-03-14T15:00:00;8.20;99.90
41324;DHT22;27073;51.128;4.220;2023-03-14T15:02:40;8.20;99.90
41324;DHT22;27073;51.128;4.220;2023-03-14T15:05:14;8.30;1.00
41324;DHT22;27073;51.128;4.220;2023-03-14T15:07:40;8.20;99.90
41324;DHT22;27073;51.128;4.220;2023-03-14T15:10:14;8.30;99.90
41324;DHT22;27073;51.128;4.220;2023-03-14T15:12:40;8.10;99.90
41324;DHT22;27073;51.128;4.220;2023-03-14T15:15:07;7.90;99.90
41324;DHT22;27073;51.128;4.220;2023-03-14T15:17:33;8.00;99.90
41324;DHT22;27073;51.128;4.220;2023-03-14T15:19:58;7.80;99.90
41324;DHT22;27073;51.128;4.220;2023-03-14T15:22:24;7.70;1.00
41324;DHT22;27073;51.128;4.220;2023-03-14T15:24:50;7.70;1.00
41324;DHT22;27073;51.128;4.220;2023-03-14T15:27:17;7.90;1.00
41324;DHT22;27073;51.128;4.220;2023-03-14T15:29:43;7.90;1.00
41324;DHT22;27073;51.128;4.220;2023-03-14T15:32:12;7.90;1.00
41324;DHT22;27073;51.128;4.220;2023-03-14T15:34:39;7.90;1.00
41324;DHT22;27073;51.128;4.220;2023-03-14T15:37:05;8.10;1.00
41324;DHT22;27073;51.128;4.220;2023-03-14T15:39:35;8.20;1.00
41324;DHT22;27073;51.128;4.220;2023-03-14T15:42:01;8.00;1.00
41324;DHT22;27073;51.128;4.220;2023-03-14T15:44:27;7.90;1.00
41324;DHT22;27073;51.128;4.220;2023-03-14T15:46:53;7.70;1.00
41324;DHT22;27073;51.128;4.220;2023-03-14T15:49:18;7.60;1.00
41324;DHT22;27073;51.128;4.220;2023-03-14T15:51:44;7.60;1.00
41324;DHT22;27073;51.128;4.220;2023-03-14T15:54:10;7.60;1.00
41324;DHT22;27073;51.128;4.220;2023-03-14T15:56:36;7.60;1.00
41324;DHT22;27073;51.128;4.220;2023-03-14T15:59:01;7.80;1.00
41324;DHT22;27073;51.128;4.220;2023-03-14T16:01:27;7.80;99.90
41324;DHT22;27073;51.128;4.220;2023-03-14T16:03:53;7.80;99.90
41324;DHT22;27073;51.128;4.220;2023-03-14T16:06:19;7.70;99.90
41324;DHT22;27073;51.128;4.220;2023-03-14T16:08:45;7.80;1.00
41324;DHT22;27073;51.128;4.220;2023-03-14T16:11:13;7.80;1.00
41324;DHT22;27073;51.128;4.220;2023-03-14T16:13:40;7.80;1.00
41324;DHT22;27073;51.128;4.220;2023-03-14T16:16:07;8.00;1.00
41324;DHT22;27073;51.128;4.220;2023-03-14T16:18:35;8.20;99.90
41324;DHT22;27073;51.128;4.220;2023-03-14T16:21:13;8.30;99.90
41324;DHT22;27073;51.128;4.220;2023-03-14T16:23:40;8.30;99.90
41324;DHT22;27073;51.128;4.220;2023-03-14T16:26:08;8.70;99.90
41324;DHT22;27073;51.128;4.220;2023-03-14T16:28:35;9.20;5.10
41324;DHT22;27073;51.128;4.220;2023-03-14T16:31:02;9.40;99.90
41324;DHT22;27073;51.128;4.220;2023-03-14T16:33:29;9.50;85.60
41324;DHT22;27073;51.128;4.220;2023-03-14T16:35:59;9.30;99.90
41324;DHT22;27073;51.128;4.220;2023-03-14T16:38:26;9.00;99.90
41324;DHT22;27073;51.128;4.220;2023-03-14T16:41:00;8.60;99.90
41324;DHT22;27073;51.128;4.220;2023-03-14T16:43:27;8.30;99.90
41324;DHT22;27073;51.128;4.220;2023-03-14T16:45:53;8.20;1.00
41324;DHT22;27073;51.128;4.220;2023-03-14T16:48:21;8.40;1.00
41324;DHT22;27073;51.128;4.220;2023-03-14T16:50:49;8.40;1.00
41324;DHT22;27073;51.128;4.220;2023-03-14T16:53:16;8.50;1.00
41324;DHT22;27073;51.128;4.220;2023-03-14T16:55:42;8.50;1.00
41324;DHT22;27073;51.128;4.220;2023-03-14T16:58:08;8.30;1.00
41324;DHT22;27073;51.128;4.220;2023-03-14T17:00:34;8.10;1.00
41324;DHT22;27073;51.128;4.220;2023-03-14T17:03:00;8.20;1.00
41324;DHT22;27073;51.128;4.220;2023-03-14T17:05:26;8.00;1.00
41324;DHT22;27073;51.128;4.220;2023-03-14T17:07:52;8.00;1.00
41324;DHT22;27073;51.128;4.220;2023-03-14T17:10:18;7.90;1.00
41324;DHT22;27073;51.128;4.220;2023-03-14T17:12:44;8.00;1.00
41324;DHT22;27073;51.128;4.220;2023-03-14T17:15:10;8.30;1.00
41324;DHT22;27073;51.128;4.220;2023-03-14T17:17:36;8.30;1.00